createdAt,value
2016-03-12T00:00:36.298Z,0
2016-03-12T00:01:36.331Z,0
2016-03-12T00:02:36.287Z,0
2016-03-12T00:03:36.274Z,0
2016-03-12T00:04:36.261Z,0
2016-03-12T00:05:36.264Z,0
2016-03-12T00:06:37.135Z,0
2016-03-12T00:07:36.232Z,0
2016-03-12T00:08:36.257Z,0
2016-03-12T00:09:36.229Z,0
2016-03-12T00:10:36.215Z,0
2016-03-12T00:11:36.219Z,0
2016-03-12T00:12:36.206Z,0
2016-03-12T00:13:36.177Z,0
2016-03-12T00:14:36.195Z,0
2016-03-12T00:15:38.339Z,0
2016-03-12T00:16:36.606Z,0
2016-03-12T00:17:37.532Z,0
2016-03-12T00:18:37.315Z,0
2016-03-12T00:19:36.990Z,0
2016-03-12T00:20:36.695Z,0
2016-03-12T00:21:36.511Z,0
2016-03-12T00:22:36.108Z,0
2016-03-12T00:23:36.094Z,0
2016-03-12T00:24:36.081Z,0
2016-03-12T00:25:36.678Z,0
2016-03-12T00:26:36.462Z,0
2016-03-12T00:27:36.058Z,0
2016-03-12T00:28:36.936Z,0
2016-03-12T00:29:36.766Z,0
2016-03-12T00:30:36.161Z,0
2016-03-12T00:31:36.694Z,0
2016-03-12T00:33:04.385Z,0
2016-03-12T00:33:50.652Z,0
2016-03-12T00:34:50.421Z,0
2016-03-12T00:35:35.955Z,0
2016-03-12T00:36:35.943Z,0
2016-03-12T00:37:35.991Z,0
2016-03-12T00:38:36.057Z,0
2016-03-12T00:39:35.935Z,0
2016-03-12T00:40:38.953Z,0
2016-03-12T00:41:50.096Z,0
2016-03-12T00:42:36.614Z,0
2016-03-12T00:43:35.898Z,0
2016-03-12T00:44:35.932Z,0
2016-03-12T00:45:36.217Z,0
2016-03-12T00:46:36.000Z,0
2016-03-12T00:47:35.956Z,0
2016-03-12T00:48:36.020Z,0
2016-03-12T00:49:35.837Z,0
2016-03-12T00:50:35.870Z,0
2016-03-12T00:51:35.842Z,0
2016-03-12T00:52:35.814Z,0
2016-03-12T00:53:35.817Z,0
2016-03-12T00:54:35.819Z,0
2016-03-12T00:55:35.775Z,0
2016-03-12T00:56:35.792Z,0
2016-03-12T00:57:35.889Z,0
2016-03-12T00:58:35.783Z,0
2016-03-12T00:59:35.738Z,0
2016-03-12T01:00:35.788Z,0
2016-03-12T01:01:35.728Z,0
2016-03-12T01:02:35.730Z,0
2016-03-12T01:03:35.733Z,0
2016-03-12T01:04:35.689Z,0
2016-03-12T01:05:35.691Z,0
2016-03-12T01:06:35.602Z,0
2016-03-12T01:07:35.697Z,0
2016-03-12T01:08:35.685Z,0
2016-03-12T01:09:35.656Z,0
2016-03-12T01:10:35.627Z,0
2016-03-12T01:11:35.646Z,0
2016-03-12T01:12:35.633Z,0
2016-03-12T01:13:35.667Z,0
2016-03-12T01:14:35.591Z,0
2016-03-12T01:15:35.609Z,0
2016-03-12T01:16:35.596Z,0
2016-03-12T01:17:35.568Z,0
2016-03-12T01:18:35.587Z,0
2016-03-12T01:19:35.542Z,0
2016-03-12T01:20:35.529Z,0
2016-03-12T01:21:39.751Z,0
2016-03-12T01:22:35.534Z,0
2016-03-12T01:23:35.537Z,0
2016-03-12T01:24:35.508Z,0
2016-03-12T01:25:35.495Z,0
2016-03-12T01:26:35.498Z,0
2016-03-12T01:27:35.486Z,0
2016-03-12T01:28:35.488Z,0
2016-03-12T01:29:35.444Z,0
2016-03-12T01:30:35.447Z,0
2016-03-12T01:31:35.466Z,0
2016-03-12T01:32:35.452Z,0
2016-03-12T01:33:35.392Z,0
2016-03-12T01:34:37.630Z,0
2016-03-12T01:35:36.601Z,0
2016-03-12T01:36:35.463Z,0
2016-03-12T01:37:35.590Z,0
2016-03-12T01:38:35.468Z,0
2016-03-12T01:39:35.971Z,0
2016-03-12T01:40:35.349Z,0
2016-03-12T01:41:35.320Z,0
2016-03-12T01:42:35.354Z,0
2016-03-12T01:43:35.309Z,0
2016-03-12T01:44:36.062Z,0
2016-03-12T01:45:36.128Z,0
2016-03-12T01:46:35.756Z,0
2016-03-12T01:47:35.273Z,0
2016-03-12T01:48:36.246Z,0
2016-03-12T01:49:35.248Z,0
2016-03-12T01:50:36.251Z,0
2016-03-12T01:51:36.690Z,0
2016-03-12T01:53:03.990Z,0
2016-03-12T01:53:49.400Z,0
2016-03-12T01:54:35.481Z,0
2016-03-12T01:55:35.186Z,0
2016-03-12T01:56:35.219Z,0
2016-03-12T01:57:35.175Z,0
2016-03-12T01:58:35.131Z,0
2016-03-12T01:59:36.072Z,0
2016-03-12T02:00:36.777Z,0
2016-03-12T02:01:35.592Z,0
2016-03-12T02:02:35.142Z,0
2016-03-12T02:03:35.161Z,0
2016-03-12T02:04:35.366Z,0
2016-03-12T02:05:35.119Z,0
2016-03-12T02:06:34.355Z,0
2016-03-12T02:07:35.219Z,0
2016-03-12T02:08:35.049Z,0
2016-03-12T02:09:35.052Z,0
2016-03-12T02:10:35.054Z,0
2016-03-12T02:11:35.041Z,0
2016-03-12T02:12:35.013Z,0
2016-03-12T02:13:35.016Z,0
2016-03-12T02:14:34.971Z,0
2016-03-12T02:15:35.005Z,0
2016-03-12T02:16:34.993Z,0
2016-03-12T02:17:34.980Z,0
2016-03-12T02:18:34.967Z,0
2016-03-12T02:19:34.812Z,0
2016-03-12T02:20:34.925Z,0
2016-03-12T02:21:34.912Z,0
2016-03-12T02:22:34.931Z,0
2016-03-12T02:23:34.917Z,0
2016-03-12T02:24:34.904Z,0
2016-03-12T02:25:34.891Z,0
2016-03-12T02:26:34.878Z,0
2016-03-12T02:27:34.850Z,0
2016-03-12T02:28:34.868Z,0
2016-03-12T02:29:34.840Z,0
2016-03-12T02:30:34.858Z,0
2016-03-12T02:31:34.814Z,0
2016-03-12T02:32:34.816Z,0
2016-03-12T02:33:34.803Z,0
2016-03-12T02:34:34.790Z,0
2016-03-12T02:35:34.794Z,0
2016-03-12T02:36:34.811Z,0
2016-03-12T02:37:34.768Z,0
2016-03-12T02:38:34.738Z,0
2016-03-12T02:39:34.757Z,0
2016-03-12T02:40:34.744Z,0
2016-03-12T02:41:34.699Z,0
2016-03-12T02:42:34.749Z,0
2016-03-12T02:43:34.674Z,0
2016-03-12T02:44:34.693Z,0
2016-03-12T02:45:34.695Z,0
2016-03-12T02:46:34.667Z,0
2016-03-12T02:47:34.669Z,0
2016-03-12T02:48:34.657Z,0
2016-03-12T02:49:34.612Z,0
2016-03-12T02:50:34.678Z,0
2016-03-12T02:51:34.601Z,0
2016-03-12T02:52:34.604Z,0
2016-03-12T02:53:37.356Z,0
2016-03-12T02:54:36.079Z,0
2016-03-12T02:55:34.566Z,0
2016-03-12T02:56:35.381Z,0
2016-03-12T02:57:35.712Z,0
2016-03-12T02:58:35.340Z,0
2016-03-12T02:59:34.639Z,0
2016-03-12T03:00:34.532Z,0
2016-03-12T03:01:34.488Z,0
2016-03-12T03:02:34.569Z,0
2016-03-12T03:03:35.463Z,0
2016-03-12T03:04:35.590Z,0
2016-03-12T03:05:35.218Z,0
2016-03-12T03:06:34.471Z,0
2016-03-12T03:07:35.442Z,0
2016-03-12T03:08:34.507Z,0
2016-03-12T03:09:34.463Z,0
2016-03-12T03:10:35.653Z,0
2016-03-12T03:12:03.375Z,0
2016-03-12T03:12:48.580Z,0
2016-03-12T03:13:34.676Z,0
2016-03-12T03:14:48.585Z,0
2016-03-12T03:15:34.370Z,0
2016-03-12T03:16:34.357Z,0
2016-03-12T03:17:34.468Z,0
2016-03-12T03:18:35.112Z,0
2016-03-12T03:19:35.130Z,0
2016-03-12T03:20:34.337Z,0
2016-03-12T03:21:48.901Z,0
2016-03-12T03:22:34.342Z,0
2016-03-12T03:23:34.282Z,0
2016-03-12T03:24:34.800Z,0
2016-03-12T03:25:34.287Z,0
2016-03-12T03:26:34.258Z,0
2016-03-12T03:27:34.089Z,0
2016-03-12T03:28:34.248Z,0
2016-03-12T03:29:34.220Z,0
2016-03-12T03:30:34.222Z,0
2016-03-12T03:31:34.209Z,0
2016-03-12T03:32:34.228Z,0
2016-03-12T03:33:34.169Z,0
2016-03-12T03:34:34.171Z,0
2016-03-12T03:35:34.174Z,0
2016-03-12T03:36:34.145Z,0
2016-03-12T03:37:34.132Z,0
2016-03-12T03:38:34.135Z,0
2016-03-12T03:39:34.137Z,0
2016-03-12T03:40:34.109Z,0
2016-03-12T03:41:34.111Z,0
2016-03-12T03:42:34.083Z,0
2016-03-12T03:43:34.085Z,0
2016-03-12T03:44:34.104Z,0
2016-03-12T03:45:34.060Z,0
2016-03-12T03:46:34.047Z,0
2016-03-12T03:47:34.049Z,0
2016-03-12T03:48:34.037Z,0
2016-03-12T03:49:33.883Z,0
2016-03-12T03:50:34.010Z,0
2016-03-12T03:51:33.997Z,0
2016-03-12T03:52:34.000Z,0
2016-03-12T03:53:34.003Z,0
2016-03-12T03:54:33.975Z,0
2016-03-12T03:55:33.992Z,0
2016-03-12T03:56:33.948Z,0
2016-03-12T03:57:33.920Z,0
2016-03-12T03:58:33.954Z,0
2016-03-12T03:59:33.925Z,0
2016-03-12T04:00:33.897Z,0
2016-03-12T04:01:33.915Z,0
2016-03-12T04:02:33.872Z,0
2016-03-12T04:03:33.920Z,0
2016-03-12T04:04:33.860Z,0
2016-03-12T04:05:33.864Z,0
2016-03-12T04:06:33.850Z,0
2016-03-12T04:07:33.853Z,0
2016-03-12T04:08:33.808Z,0
2016-03-12T04:09:33.843Z,0
2016-03-12T04:10:33.799Z,0
2016-03-12T04:11:33.786Z,0
2016-03-12T04:12:36.101Z,0
2016-03-12T04:13:35.572Z,0
2016-03-12T04:14:33.888Z,0
2016-03-12T04:15:35.015Z,0
2016-03-12T04:16:34.534Z,0
2016-03-12T04:17:33.895Z,0
2016-03-12T04:18:34.149Z,0
2016-03-12T04:19:33.713Z,0
2016-03-12T04:20:33.685Z,0
2016-03-12T04:21:33.531Z,0
2016-03-12T04:22:34.175Z,0
2016-03-12T04:23:34.521Z,0
2016-03-12T04:24:34.336Z,0
2016-03-12T04:25:33.887Z,0
2016-03-12T04:26:34.342Z,0
2016-03-12T04:27:33.720Z,0
2016-03-12T04:28:36.128Z,0
2016-03-12T04:29:34.584Z,0
2016-03-12T04:30:34.697Z,0
2016-03-12T04:31:34.200Z,0
2016-03-12T04:32:34.123Z,0
2016-03-12T04:33:33.844Z,0
2016-03-12T04:34:33.988Z,0
2016-03-12T04:35:33.522Z,0
2016-03-12T04:36:33.541Z,0
2016-03-12T04:37:33.527Z,0
2016-03-12T04:38:33.859Z,0
2016-03-12T04:39:33.502Z,0
2016-03-12T04:40:47.833Z,0
2016-03-12T04:41:33.491Z,0
2016-03-12T04:42:33.572Z,0
2016-03-12T04:43:33.482Z,0
2016-03-12T04:44:33.515Z,0
2016-03-12T04:45:33.268Z,0
2016-03-12T04:46:33.473Z,0
2016-03-12T04:47:33.399Z,0
2016-03-12T04:48:33.416Z,0
2016-03-12T04:49:33.388Z,0
2016-03-12T04:50:33.407Z,0
2016-03-12T04:51:33.394Z,0
2016-03-12T04:52:33.381Z,0
2016-03-12T04:53:33.367Z,0
2016-03-12T04:54:33.354Z,0
2016-03-12T04:55:33.326Z,0
2016-03-12T04:56:33.329Z,0
2016-03-12T04:57:33.316Z,0
2016-03-12T04:58:33.287Z,0
2016-03-12T04:59:33.290Z,0
2016-03-12T05:00:33.293Z,0
2016-03-12T05:01:33.264Z,0
2016-03-12T05:02:33.283Z,0
2016-03-12T05:03:33.239Z,0
2016-03-12T05:04:33.241Z,0
2016-03-12T05:05:33.087Z,0
2016-03-12T05:06:33.262Z,0
2016-03-12T05:07:33.219Z,0
2016-03-12T05:08:33.191Z,0
2016-03-12T05:09:33.209Z,0
2016-03-12T05:10:33.165Z,0
2016-03-12T05:11:33.167Z,0
2016-03-12T05:12:33.187Z,0
2016-03-12T05:13:33.157Z,0
2016-03-12T05:14:33.113Z,0
2016-03-12T05:15:33.115Z,0
2016-03-12T05:16:33.103Z,0
2016-03-12T05:17:33.100Z,0
2016-03-12T05:18:33.088Z,0
2016-03-12T05:19:33.031Z,0
2016-03-12T05:20:33.036Z,0
2016-03-12T05:21:33.009Z,0
2016-03-12T05:22:33.003Z,0
2016-03-12T05:23:32.954Z,0
2016-03-12T05:24:32.969Z,0
2016-03-12T05:25:32.934Z,0
2016-03-12T05:26:32.917Z,0
2016-03-12T05:27:32.917Z,0
2016-03-12T05:28:32.871Z,0
2016-03-12T05:29:32.871Z,0
2016-03-12T05:30:32.888Z,0
2016-03-12T05:32:34.608Z,0
2016-03-12T05:33:33.360Z,5
2016-03-12T05:34:34.112Z,5
2016-03-12T05:35:32.801Z,5
2016-03-12T05:36:33.475Z,5
2016-03-12T05:37:32.900Z,5
2016-03-12T05:38:33.012Z,5
2016-03-12T05:39:32.795Z,5
2016-03-12T05:40:32.768Z,10
2016-03-12T05:41:33.973Z,10
2016-03-12T05:42:34.414Z,10
2016-03-12T05:43:34.244Z,10
2016-03-12T05:44:33.856Z,10
2016-03-12T05:45:33.125Z,10
2016-03-12T05:46:32.689Z,15
2016-03-12T05:47:34.801Z,15
2016-03-12T05:48:33.007Z,15
2016-03-12T05:50:01.088Z,15
2016-03-12T05:50:46.825Z,15
2016-03-12T05:51:32.827Z,15
2016-03-12T05:52:32.690Z,15
2016-03-12T05:53:32.818Z,20
2016-03-12T05:54:33.071Z,20
2016-03-12T05:55:32.588Z,20
2016-03-12T05:56:32.591Z,20
2016-03-12T05:57:47.454Z,25
2016-03-12T05:59:02.332Z,25
2016-03-12T05:59:46.896Z,25
2016-03-12T06:00:32.523Z,25
2016-03-12T06:01:32.543Z,30
2016-03-12T06:02:32.529Z,30
2016-03-12T06:03:32.516Z,30
2016-03-12T06:04:32.504Z,30
2016-03-12T06:05:32.491Z,35
2016-03-12T06:06:32.493Z,35
2016-03-12T06:07:32.184Z,35
2016-03-12T06:08:32.467Z,35
2016-03-12T06:09:32.454Z,35
2016-03-12T06:10:32.442Z,40
2016-03-12T06:11:32.444Z,40
2016-03-12T06:12:32.400Z,40
2016-03-12T06:13:32.402Z,45
2016-03-12T06:14:32.390Z,45
2016-03-12T06:15:32.408Z,45
2016-03-12T06:16:31.630Z,50
2016-03-12T06:17:32.398Z,55
2016-03-12T06:18:32.338Z,55
2016-03-12T06:19:32.372Z,55
2016-03-12T06:20:32.327Z,55
2016-03-12T06:21:32.299Z,55
2016-03-12T06:22:32.333Z,60
2016-03-12T06:23:32.320Z,55
2016-03-12T06:24:32.307Z,50
2016-03-12T06:25:32.263Z,50
2016-03-12T06:26:32.282Z,55
2016-03-12T06:27:32.253Z,50
2016-03-12T06:28:32.240Z,50
2016-03-12T06:29:32.243Z,45
2016-03-12T06:30:32.230Z,45
2016-03-12T06:31:32.248Z,45
2016-03-12T06:32:32.173Z,45
2016-03-12T06:33:32.190Z,45
2016-03-12T06:34:32.194Z,45
2016-03-12T06:35:32.181Z,40
2016-03-12T06:36:32.168Z,40
2016-03-12T06:37:32.186Z,40
2016-03-12T06:38:32.126Z,45
2016-03-12T06:39:32.160Z,45
2016-03-12T06:40:32.115Z,50
2016-03-12T06:41:32.118Z,50
2016-03-12T06:42:32.106Z,60
2016-03-12T06:43:32.093Z,60
2016-03-12T06:44:32.064Z,65
2016-03-12T06:45:32.083Z,70
2016-03-12T06:46:32.039Z,75
2016-03-12T06:47:32.057Z,75
2016-03-12T06:48:31.887Z,80
2016-03-12T06:49:32.046Z,80
2016-03-12T06:50:32.846Z,80
2016-03-12T06:51:34.083Z,85
2016-03-12T06:52:32.664Z,90
2016-03-12T06:53:31.994Z,90
2016-03-12T06:54:32.247Z,85
2016-03-12T06:55:32.469Z,90
2016-03-12T06:56:32.330Z,90
2016-03-12T06:57:32.161Z,90
2016-03-12T06:58:31.913Z,95
2016-03-12T06:59:31.949Z,95
2016-03-12T07:00:32.919Z,95
2016-03-12T07:01:33.672Z,95
2016-03-12T07:02:31.893Z,90
2016-03-12T07:03:32.818Z,95
2016-03-12T07:04:32.509Z,95
2016-03-12T07:05:32.167Z,90
2016-03-12T07:06:32.640Z,95
2016-03-12T07:07:32.360Z,90
2016-03-12T07:08:32.691Z,95
2016-03-12T07:09:32.662Z,100
2016-03-12T07:10:32.368Z,105
2016-03-12T07:11:31.668Z,115
2016-03-12T07:12:31.826Z,120
2016-03-12T07:13:32.158Z,120
2016-03-12T07:14:31.800Z,115
2016-03-12T07:15:31.742Z,130
2016-03-12T07:16:45.978Z,145
2016-03-12T07:17:31.762Z,150
2016-03-12T07:18:46.593Z,150
2016-03-12T07:19:32.065Z,150
2016-03-12T07:20:31.989Z,140
2016-03-12T07:21:32.210Z,125
2016-03-12T07:22:31.853Z,120
2016-03-12T07:23:31.669Z,120
2016-03-12T07:24:31.688Z,120
2016-03-12T07:25:31.658Z,120
2016-03-12T07:26:31.646Z,135
2016-03-12T07:27:31.649Z,135
2016-03-12T07:28:31.652Z,140
2016-03-12T07:29:31.622Z,145
2016-03-12T07:30:31.641Z,150
2016-03-12T07:31:31.582Z,150
2016-03-12T07:32:31.615Z,150
2016-03-12T07:33:31.602Z,135
2016-03-12T07:34:31.573Z,135
2016-03-12T07:35:31.608Z,135
2016-03-12T07:36:31.563Z,140
2016-03-12T07:37:31.551Z,145
2016-03-12T07:38:31.537Z,145
2016-03-12T07:39:31.540Z,145
2016-03-12T07:40:31.527Z,145
2016-03-12T07:41:31.529Z,155
2016-03-12T07:42:31.502Z,155
2016-03-12T07:43:31.520Z,145
2016-03-12T07:44:31.507Z,140
2016-03-12T07:45:31.494Z,145
2016-03-12T07:46:31.481Z,150
2016-03-12T07:47:31.453Z,155
2016-03-12T07:48:31.470Z,150
2016-03-12T07:49:31.442Z,145
2016-03-12T07:50:31.444Z,145
2016-03-12T07:51:31.463Z,150
2016-03-12T07:52:31.419Z,155
2016-03-12T07:53:31.390Z,150
2016-03-12T07:54:31.394Z,145
2016-03-12T07:55:31.411Z,150
2016-03-12T07:56:31.367Z,150
2016-03-12T07:57:31.401Z,150
2016-03-12T07:58:31.372Z,145
2016-03-12T07:59:31.219Z,140
2016-03-12T08:00:31.346Z,145
2016-03-12T08:01:31.333Z,145
2016-03-12T08:02:31.335Z,160
2016-03-12T08:03:31.339Z,180
2016-03-12T08:04:31.310Z,180
2016-03-12T08:05:31.329Z,165
2016-03-12T08:06:31.301Z,170
2016-03-12T08:07:31.288Z,175
2016-03-12T08:08:30.415Z,170
2016-03-12T08:10:33.436Z,175
2016-03-12T08:11:32.657Z,170
2016-03-12T08:12:31.567Z,165
2016-03-12T08:13:32.288Z,165
2016-03-12T08:14:31.650Z,165
2016-03-12T08:15:31.575Z,165
2016-03-12T08:16:31.203Z,160
2016-03-12T08:17:31.283Z,160
2016-03-12T08:18:31.411Z,165
2016-03-12T08:19:33.117Z,165
2016-03-12T08:20:31.197Z,175
2016-03-12T08:21:31.387Z,180
2016-03-12T08:22:31.562Z,185
2016-03-12T08:23:32.127Z,190
2016-03-12T08:24:31.442Z,205
2016-03-12T08:26:31.119Z,210
2016-03-12T08:27:32.107Z,225
2016-03-12T08:28:45.344Z,240
2016-03-12T08:29:31.580Z,235
2016-03-12T08:30:31.209Z,230
2016-03-12T08:31:31.086Z,235
2016-03-12T08:32:31.089Z,235
2016-03-12T08:33:31.060Z,245
2016-03-12T08:34:31.079Z,245
2016-03-12T08:35:46.550Z,260
2016-03-12T08:36:31.068Z,260
2016-03-12T08:37:31.024Z,260
2016-03-12T08:38:31.527Z,270
2016-03-12T08:39:45.233Z,275
2016-03-12T08:40:31.048Z,265
2016-03-12T08:41:31.395Z,280
2016-03-12T08:42:31.007Z,295
2016-03-12T08:43:30.290Z,285
2016-03-12T08:44:30.995Z,275
2016-03-12T08:45:30.967Z,280
2016-03-12T08:46:30.986Z,295
2016-03-12T08:47:31.004Z,335
2016-03-12T08:48:30.975Z,410
2016-03-12T08:49:30.931Z,490
2016-03-12T08:50:30.981Z,490
2016-03-12T08:51:30.937Z,470
2016-03-12T08:52:30.924Z,470
2016-03-12T08:53:30.942Z,475
2016-03-12T08:54:30.930Z,485
2016-03-12T08:55:30.900Z,475
2016-03-12T08:56:30.888Z,450
2016-03-12T08:57:30.937Z,420
2016-03-12T08:58:30.878Z,360
2016-03-12T08:59:30.896Z,320
2016-03-12T09:00:30.867Z,305
2016-03-12T09:01:30.869Z,300
2016-03-12T09:02:30.857Z,295
2016-03-12T09:03:30.860Z,300
2016-03-12T09:04:30.862Z,300
2016-03-12T09:05:30.835Z,290
2016-03-12T09:06:30.837Z,290
2016-03-12T09:07:30.824Z,285
2016-03-12T09:08:30.810Z,285
2016-03-12T09:09:30.845Z,270
2016-03-12T09:10:30.801Z,270
2016-03-12T09:11:30.803Z,260
2016-03-12T09:12:30.790Z,245
2016-03-12T09:13:30.808Z,250
2016-03-12T09:14:30.780Z,245
2016-03-12T09:15:30.798Z,245
2016-03-12T09:16:30.770Z,250
2016-03-12T09:17:30.773Z,250
2016-03-12T09:18:30.744Z,250
2016-03-12T09:19:30.747Z,250
2016-03-12T09:20:30.734Z,250
2016-03-12T09:21:30.753Z,245
2016-03-12T09:22:30.723Z,245
2016-03-12T09:23:30.726Z,235
2016-03-12T09:24:30.713Z,235
2016-03-12T09:25:30.700Z,230
2016-03-12T09:26:30.703Z,220
2016-03-12T09:27:30.705Z,215
2016-03-12T09:28:30.693Z,215
2016-03-12T09:29:33.602Z,220
2016-03-12T09:30:32.855Z,225
2016-03-12T09:31:31.888Z,225
2016-03-12T09:32:30.672Z,220
2016-03-12T09:33:30.925Z,215
2016-03-12T09:34:31.271Z,210
2016-03-12T09:35:31.117Z,205
2016-03-12T09:36:30.635Z,200
2016-03-12T09:37:30.654Z,195
2016-03-12T09:38:32.219Z,195
2016-03-12T09:39:31.690Z,190
2016-03-12T09:40:32.225Z,185
2016-03-12T09:41:30.587Z,185
2016-03-12T09:42:31.573Z,185
2016-03-12T09:43:31.264Z,185
2016-03-12T09:44:31.892Z,185
2016-03-12T09:45:30.988Z,185
2016-03-12T09:47:13.475Z,190
2016-03-12T09:47:30.572Z,190
2016-03-12T09:48:30.559Z,190
2016-03-12T09:49:44.734Z,190
2016-03-12T09:50:31.017Z,190
2016-03-12T09:51:30.520Z,195
2016-03-12T09:52:30.554Z,200
2016-03-12T09:53:30.525Z,205
2016-03-12T09:54:31.059Z,205
2016-03-12T09:55:31.156Z,205
2016-03-12T09:56:30.689Z,205
2016-03-12T09:58:30.679Z,205
2016-03-12T09:59:30.479Z,205
2016-03-12T10:00:30.466Z,200
2016-03-12T10:01:30.469Z,200
2016-03-12T10:02:30.455Z,205
2016-03-12T10:03:30.458Z,220
2016-03-12T10:04:30.430Z,225
2016-03-12T10:05:30.432Z,225
2016-03-12T10:06:30.294Z,230
2016-03-12T10:07:30.417Z,240
2016-03-12T10:08:30.295Z,235
2016-03-12T10:09:30.422Z,235
2016-03-12T10:10:30.409Z,220
2016-03-12T10:11:30.381Z,210
2016-03-12T10:12:30.367Z,205
2016-03-12T10:13:30.370Z,205
2016-03-12T10:14:30.373Z,215
2016-03-12T10:15:30.360Z,225
2016-03-12T10:16:30.362Z,220
2016-03-12T10:17:30.350Z,215
2016-03-12T10:18:30.337Z,220
2016-03-12T10:19:30.339Z,235
2016-03-12T10:20:30.342Z,250
2016-03-12T10:21:30.330Z,240
2016-03-12T10:22:30.317Z,240
2016-03-12T10:23:30.319Z,260
2016-03-12T10:24:30.337Z,280
2016-03-12T10:25:30.293Z,305
2016-03-12T10:26:30.296Z,315
2016-03-12T10:27:30.252Z,325
2016-03-12T10:28:30.269Z,320
2016-03-12T10:29:30.258Z,305
2016-03-12T10:30:30.260Z,300
2016-03-12T10:31:30.262Z,285
2016-03-12T10:32:30.249Z,270
2016-03-12T10:33:30.237Z,255
2016-03-12T10:34:30.098Z,255
2016-03-12T10:35:30.226Z,250
2016-03-12T10:36:30.212Z,250
2016-03-12T10:37:30.226Z,250
2016-03-12T10:38:30.244Z,260
2016-03-12T10:39:30.028Z,270
2016-03-12T10:40:30.171Z,275
2016-03-12T10:41:30.206Z,270
2016-03-12T10:42:30.145Z,255
2016-03-12T10:43:30.195Z,245
2016-03-12T10:44:30.151Z,240
2016-03-12T10:45:30.138Z,235
2016-03-12T10:46:30.140Z,235
2016-03-12T10:47:30.144Z,230
2016-03-12T10:48:30.239Z,220
2016-03-12T10:49:30.117Z,215
2016-03-12T10:50:31.527Z,210
2016-03-12T10:51:30.341Z,210
2016-03-12T10:52:30.891Z,210
2016-03-12T10:53:30.143Z,205
2016-03-12T10:54:30.069Z,205
2016-03-12T10:55:30.258Z,210
2016-03-12T10:56:30.136Z,225
2016-03-12T10:57:33.217Z,230
2016-03-12T10:58:31.704Z,235
2016-03-12T10:59:30.051Z,235
2016-03-12T11:00:30.037Z,235
2016-03-12T11:01:30.915Z,240
2016-03-12T11:02:30.448Z,235
2016-03-12T11:04:30.814Z,230
2016-03-12T11:05:30.114Z,235
2016-03-12T11:06:30.257Z,225
2016-03-12T11:07:30.775Z,225
2016-03-12T11:08:30.450Z,230
2016-03-12T11:09:29.952Z,230
2016-03-12T11:10:30.424Z,225
2016-03-12T11:11:29.942Z,225
2016-03-12T11:12:29.945Z,225
2016-03-12T11:13:31.088Z,230
2016-03-12T11:14:31.341Z,245
2016-03-12T11:15:45.125Z,260
2016-03-12T11:16:44.111Z,255
2016-03-12T11:18:30.227Z,240
2016-03-12T11:19:30.088Z,230
2016-03-12T11:20:29.872Z,230
2016-03-12T11:21:29.891Z,235
2016-03-12T11:22:30.033Z,225
2016-03-12T11:23:29.723Z,225
2016-03-12T11:24:29.977Z,225
2016-03-12T11:25:29.858Z,230
2016-03-12T11:26:29.829Z,235
2016-03-12T11:27:29.832Z,235
2016-03-12T11:28:29.803Z,235
2016-03-12T11:29:29.853Z,240
2016-03-12T11:30:29.793Z,250
2016-03-12T11:31:29.810Z,255
2016-03-12T11:32:29.799Z,270
2016-03-12T11:33:29.801Z,285
2016-03-12T11:34:29.773Z,295
2016-03-12T11:35:29.776Z,300
2016-03-12T11:36:29.809Z,295
2016-03-12T11:37:29.765Z,285
2016-03-12T11:38:29.751Z,290
2016-03-12T11:39:29.755Z,295
2016-03-12T11:40:29.742Z,300
2016-03-12T11:41:29.713Z,310
2016-03-12T11:42:29.715Z,290
2016-03-12T11:43:29.718Z,290
2016-03-12T11:44:29.706Z,325
2016-03-12T11:45:29.723Z,325
2016-03-12T11:46:29.681Z,330
2016-03-12T11:47:29.683Z,350
2016-03-12T11:48:29.670Z,320
2016-03-12T11:49:29.672Z,310
2016-03-12T11:50:29.675Z,310
2016-03-12T11:51:29.678Z,310
2016-03-12T11:52:29.664Z,325
2016-03-12T11:53:29.652Z,340
2016-03-12T11:54:29.655Z,335
2016-03-12T11:55:29.641Z,330
2016-03-12T11:56:29.675Z,310
2016-03-12T11:57:29.600Z,305
2016-03-12T11:58:29.603Z,300
2016-03-12T11:59:29.605Z,295
2016-03-12T12:00:29.593Z,290
2016-03-12T12:01:29.611Z,285
2016-03-12T12:02:29.567Z,265
2016-03-12T12:03:29.569Z,255
2016-03-12T12:04:29.587Z,250
2016-03-12T12:05:29.559Z,255
2016-03-12T12:06:29.562Z,245
2016-03-12T12:07:30.017Z,220
2016-03-12T12:08:29.693Z,210
2016-03-12T12:09:29.523Z,215
2016-03-12T12:10:30.198Z,205
2016-03-12T12:11:29.903Z,205
2016-03-12T12:12:30.031Z,200
2016-03-12T12:13:29.503Z,205
2016-03-12T12:14:29.489Z,205
2016-03-12T12:15:29.492Z,205
2016-03-12T12:16:30.417Z,200
2016-03-12T12:17:31.731Z,210
2016-03-12T12:18:29.469Z,210
2016-03-12T12:19:29.987Z,215
2016-03-12T12:20:29.443Z,215
2016-03-12T12:21:29.603Z,220
2016-03-12T12:22:31.339Z,225
2016-03-12T12:23:30.420Z,235
2016-03-12T12:24:29.423Z,240
2016-03-12T12:25:29.472Z,250
2016-03-12T12:26:29.615Z,255
2016-03-12T12:27:29.634Z,255
2016-03-12T12:28:29.886Z,255
2016-03-12T12:29:29.655Z,260
2016-03-12T12:30:29.361Z,250
2016-03-12T12:31:29.379Z,245
2016-03-12T12:32:30.085Z,245
2016-03-12T12:33:30.462Z,245
2016-03-12T12:34:43.794Z,265
2016-03-12T12:35:29.812Z,290
2016-03-12T12:36:30.268Z,300
2016-03-12T12:37:29.317Z,295
2016-03-12T12:38:29.538Z,285
2016-03-12T12:39:29.353Z,280
2016-03-12T12:40:29.418Z,270
2016-03-12T12:41:29.296Z,265
2016-03-12T12:42:29.299Z,275
2016-03-12T12:43:29.254Z,285
2016-03-12T12:44:29.304Z,290
2016-03-12T12:45:29.276Z,270
2016-03-12T12:46:29.278Z,245
2016-03-12T12:47:29.265Z,245
2016-03-12T12:48:29.252Z,245
2016-03-12T12:49:29.225Z,245
2016-03-12T12:50:29.273Z,250
2016-03-12T12:51:29.214Z,245
2016-03-12T12:52:29.217Z,250
2016-03-12T12:53:29.219Z,255
2016-03-12T12:54:29.191Z,255
2016-03-12T12:55:29.194Z,260
2016-03-12T12:56:29.212Z,270
2016-03-12T12:57:29.183Z,265
2016-03-12T12:58:29.169Z,255
2016-03-12T12:59:29.157Z,255
2016-03-12T13:00:29.160Z,250
2016-03-12T13:01:29.147Z,240
2016-03-12T13:02:29.166Z,235
2016-03-12T13:03:29.122Z,235
2016-03-12T13:04:29.171Z,245
2016-03-12T13:05:29.126Z,240
2016-03-12T13:06:29.130Z,225
2016-03-12T13:07:29.132Z,220
2016-03-12T13:08:29.119Z,220
2016-03-12T13:09:29.090Z,220
2016-03-12T13:10:29.093Z,225
2016-03-12T13:11:29.096Z,225
2016-03-12T13:12:29.067Z,230
2016-03-12T13:13:29.071Z,230
2016-03-12T13:14:29.073Z,225
2016-03-12T13:15:29.076Z,225
2016-03-12T13:16:29.047Z,230
2016-03-12T13:17:29.050Z,235
2016-03-12T13:18:29.037Z,235
2016-03-12T13:19:29.039Z,230
2016-03-12T13:20:29.026Z,220
2016-03-12T13:21:29.029Z,225
2016-03-12T13:22:29.031Z,225
2016-03-12T13:23:29.019Z,230
2016-03-12T13:24:29.006Z,230
2016-03-12T13:25:28.977Z,225
2016-03-12T13:26:30.042Z,215
2016-03-12T13:27:29.638Z,200
2016-03-12T13:28:28.955Z,200
2016-03-12T13:29:29.988Z,205
2016-03-12T13:30:29.756Z,195
2016-03-12T13:31:28.963Z,195
2016-03-12T13:32:29.074Z,195
2016-03-12T13:33:28.952Z,195
2016-03-12T13:34:28.908Z,190
2016-03-12T13:35:29.927Z,190
2016-03-12T13:36:31.335Z,195
2016-03-12T13:37:29.103Z,205
2016-03-12T13:38:29.669Z,215
2016-03-12T13:39:29.171Z,220
2016-03-12T13:40:29.252Z,220
2016-03-12T13:42:29.492Z,235
2016-03-12T13:43:28.854Z,235
2016-03-12T13:44:28.872Z,235
2016-03-12T13:45:29.454Z,235
2016-03-12T13:46:29.003Z,230
2016-03-12T13:47:29.240Z,220
2016-03-12T13:48:29.039Z,225
2016-03-12T13:49:29.011Z,245
2016-03-12T13:50:28.794Z,240
2016-03-12T13:51:29.484Z,230
2016-03-12T13:52:29.783Z,220
2016-03-12T13:53:43.272Z,220
2016-03-12T13:54:29.133Z,215
2016-03-12T13:55:29.620Z,205
2016-03-12T13:56:29.405Z,210
2016-03-12T13:57:28.907Z,220
2016-03-12T13:58:28.769Z,230
2016-03-12T13:59:28.724Z,240
2016-03-12T14:00:28.775Z,255
2016-03-12T14:01:28.714Z,265
2016-03-12T14:02:28.732Z,265
2016-03-12T14:03:28.719Z,260
2016-03-12T14:04:28.691Z,250
2016-03-12T14:05:28.725Z,255
2016-03-12T14:06:28.716Z,265
2016-03-12T14:07:28.704Z,270
2016-03-12T14:08:28.503Z,260
2016-03-12T14:09:28.710Z,245
2016-03-12T14:10:28.651Z,240
2016-03-12T14:11:28.668Z,255
2016-03-12T14:12:28.671Z,255
2016-03-12T14:13:28.643Z,260
2016-03-12T14:14:28.676Z,275
2016-03-12T14:15:28.648Z,285
2016-03-12T14:16:28.650Z,285
2016-03-12T14:17:28.606Z,290
2016-03-12T14:18:28.625Z,300
2016-03-12T14:19:28.595Z,290